PWSweather.com
Personal Weather Stations
Station Observations
KMIEASTT1
Tawas Bay, East Tawas, MI 48730

Tawas BayEast Tawas, MI 48730

Lat: 44.28, Lon: -83.48

Elevation: 600

Station Type: Davis VantagePro

http://www.tawasbayweather.com

High Low Average
Temperature 50.3°F10.2°C 35.7°F2.1°C 39.1°F3.9°C
Dew Point 50.0°F10.0°C 35.2°F1.8°C 38.6°F3.7°C
Winds 17.0 mph 27.4 kmh Calm Calm 8.0 mph S12.9 kmh S
Wind Gusts 21.0 mph33.8 kmh -- 10.0 mph16.1 kmh
Humidity 99% 98% 98%
Pressure 29.86 in1011.2 mb 29.64 in1003.7 mb -
Precipitation 0.00 in0.0 mm - -
Hour Temp Dew Point Humidity Winds Wind Gusts Pressure Precip Precip Rate Daily Precip Total
12:00 AM 35.5°F1.9°C 35.0°F1.7°C 98% 6.0 mph S9.7 kmh S 8.0 mph12.9 kmh 29.86 in1011.2 mb 0.00 in0.0 mm 0.00 in0.0 mm 0.00 in0.0 mm
12:15 AM 35.6°F2.0°C 35.1°F1.7°C 98% 6.0 mph SSW9.7 kmh SSW 7.0 mph11.3 kmh 29.86 in1011.2 mb 0.00 in0.0 mm 0.00 in0.0 mm 0.00 in0.0 mm
12:30 AM 35.7°F2.1°C 35.2°F1.8°C 98% 2.0 mph S3.2 kmh S 5.0 mph8.0 kmh 29.87 in1011.5 mb 0.00 in0.0 mm 0.00 in0.0 mm 0.00 in0.0 mm
12:45 AM 35.7°F2.1°C 35.2°F1.8°C 98% 3.0 mph S4.8 kmh S 5.0 mph8.0 kmh 29.86 in1011.2 mb 0.00 in0.0 mm 0.00 in0.0 mm 0.00 in0.0 mm
01:00 AM 35.7°F2.1°C 35.2°F1.8°C 98% 5.0 mph S8.0 kmh S 5.0 mph8.0 kmh 29.86 in1011.2 mb 0.00 in0.0 mm 0.00 in0.0 mm 0.00 in0.0 mm
01:15 AM 35.8°F2.1°C 35.3°F1.8°C 98% 5.0 mph S8.0 kmh S 5.0 mph8.0 kmh 29.86 in1011.2 mb 0.00 in0.0 mm 0.00 in0.0 mm 0.00 in0.0 mm
01:30 AM 35.8°F2.1°C 35.3°F1.8°C 98% 5.0 mph S8.0 kmh S 6.0 mph9.7 kmh 29.86 in1011.2 mb 0.00 in0.0 mm 0.00 in0.0 mm 0.00 in0.0 mm
01:45 AM 36.4°F2.4°C 35.9°F2.2°C 98% 6.0 mph S9.7 kmh S 9.0 mph14.5 kmh 29.85 in1010.8 mb 0.00 in0.0 mm 0.00 in0.0 mm 0.00 in0.0 mm
02:00 AM 36.4°F2.4°C 35.9°F2.2°C 98% 6.0 mph S9.7 kmh S 8.0 mph12.9 kmh 29.86 in1011.2 mb 0.00 in0.0 mm 0.00 in0.0 mm 0.00 in0.0 mm
02:15 AM 36.3°F2.4°C 35.8°F2.1°C 98% 5.0 mph SSE8.0 kmh SSE 7.0 mph11.3 kmh 29.85 in1010.8 mb 0.00 in0.0 mm 0.00 in0.0 mm 0.00 in0.0 mm
02:30 AM 36.2°F2.3°C 35.7°F2.1°C 98% 5.0 mph SSE8.0 kmh SSE 6.0 mph9.7 kmh 29.85 in1010.8 mb 0.00 in0.0 mm 0.00 in0.0 mm 0.00 in0.0 mm
02:45 AM 36.3°F2.4°C 35.8°F2.1°C 98% 4.0 mph S6.4 kmh S 6.0 mph9.7 kmh 29.85 in1010.8 mb 0.00 in0.0 mm 0.00 in0.0 mm 0.00 in0.0 mm
03:00 AM 36.2°F2.3°C 35.7°F2.1°C 98% 6.0 mph SSE9.7 kmh SSE 7.0 mph11.3 kmh 29.85 in1010.8 mb 0.00 in0.0 mm 0.00 in0.0 mm 0.00 in0.0 mm
03:15 AM 36.3°F2.4°C 35.8°F2.1°C 98% 6.0 mph S9.7 kmh S 8.0 mph12.9 kmh 29.85 in1010.8 mb 0.00 in0.0 mm 0.00 in0.0 mm 0.00 in0.0 mm
03:30 AM 36.5°F2.5°C 36.0°F2.2°C 98% 7.0 mph S11.3 kmh S 9.0 mph14.5 kmh 29.85 in1010.8 mb 0.00 in0.0 mm 0.00 in0.0 mm 0.00 in0.0 mm
03:45 AM 36.4°F2.4°C 35.9°F2.2°C 98% 11.0 mph S17.7 kmh S 11.0 mph17.7 kmh 29.86 in1011.2 mb 0.00 in0.0 mm 0.00 in0.0 mm 0.00 in0.0 mm
04:00 AM 36.4°F2.4°C 35.9°F2.2°C 98% 10.0 mph S16.1 kmh S 11.0 mph17.7 kmh 29.86 in1011.2 mb 0.00 in0.0 mm 0.00 in0.0 mm 0.00 in0.0 mm
04:15 AM 36.4°F2.4°C 35.9°F2.2°C 98% 9.0 mph S14.5 kmh S 10.0 mph16.1 kmh 29.85 in1010.8 mb 0.00 in0.0 mm 0.00 in0.0 mm 0.00 in0.0 mm
04:30 AM 36.7°F2.6°C 36.2°F2.3°C 98% 10.0 mph S16.1 kmh S 12.0 mph19.3 kmh 29.85 in1010.8 mb 0.00 in0.0 mm 0.00 in0.0 mm 0.00 in0.0 mm
04:45 AM 36.7°F2.6°C 36.2°F2.3°C 98% 9.0 mph S14.5 kmh S 10.0 mph16.1 kmh 29.85 in1010.8 mb 0.00 in0.0 mm 0.00 in0.0 mm 0.00 in0.0 mm
05:00 AM 36.7°F2.6°C 36.2°F2.3°C 98% 8.0 mph S12.9 kmh S 10.0 mph16.1 kmh 29.85 in1010.8 mb 0.00 in0.0 mm 0.00 in0.0 mm 0.00 in0.0 mm
05:15 AM 36.8°F2.7°C 36.3°F2.4°C 98% 8.0 mph S12.9 kmh S 11.0 mph17.7 kmh 29.85 in1010.8 mb 0.00 in0.0 mm 0.00 in0.0 mm 0.00 in0.0 mm
05:30 AM 37.3°F2.9°C 36.8°F2.7°C 98% 7.0 mph S11.3 kmh S 10.0 mph16.1 kmh 29.84 in1010.5 mb 0.00 in0.0 mm 0.00 in0.0 mm 0.00 in0.0 mm
05:45 AM 37.5°F3.1°C 37.0°F2.8°C 98% 10.0 mph S16.1 kmh S 12.0 mph19.3 kmh 29.85 in1010.8 mb 0.00 in0.0 mm 0.00 in0.0 mm 0.00 in0.0 mm
06:00 AM 38.3°F3.5°C 37.8°F3.2°C 98% 13.0 mph S20.9 kmh S 15.0 mph24.1 kmh 29.84 in1010.5 mb 0.00 in0.0 mm 0.00 in0.0 mm 0.00 in0.0 mm
06:15 AM 38.0°F3.3°C 37.5°F3.1°C 98% 13.0 mph S20.9 kmh S 14.0 mph22.5 kmh 29.84 in1010.5 mb 0.00 in0.0 mm 0.00 in0.0 mm 0.00 in0.0 mm
06:30 AM 37.7°F3.2°C 37.2°F2.9°C 98% 9.0 mph S14.5 kmh S 12.0 mph19.3 kmh 29.84 in1010.5 mb 0.00 in0.0 mm 0.00 in0.0 mm 0.00 in0.0 mm
06:45 AM 36.9°F2.7°C 36.4°F2.4°C 98% 7.0 mph S11.3 kmh S 8.0 mph12.9 kmh 29.84 in1010.5 mb 0.00 in0.0 mm 0.00 in0.0 mm 0.00 in0.0 mm
07:00 AM 37.3°F2.9°C 36.8°F2.7°C 98% 8.0 mph S12.9 kmh S 9.0 mph14.5 kmh 29.83 in1010.2 mb 0.00 in0.0 mm 0.00 in0.0 mm 0.00 in0.0 mm
07:15 AM 37.5°F3.1°C 37.0°F2.8°C 98% 8.0 mph S12.9 kmh S 11.0 mph17.7 kmh 29.83 in1010.2 mb 0.00 in0.0 mm 0.00 in0.0 mm 0.00 in0.0 mm
07:30 AM 37.7°F3.2°C 37.2°F2.9°C 98% 7.0 mph S11.3 kmh S 9.0 mph14.5 kmh 29.82 in1009.8 mb 0.00 in0.0 mm 0.00 in0.0 mm 0.00 in0.0 mm
07:45 AM 37.7°F3.2°C 37.2°F2.9°C 98% 5.0 mph SSE8.0 kmh SSE 7.0 mph11.3 kmh 29.82 in1009.8 mb 0.00 in0.0 mm 0.00 in0.0 mm 0.00 in0.0 mm
08:00 AM 37.4°F3.0°C 36.9°F2.7°C 98% 5.0 mph S8.0 kmh S 6.0 mph9.7 kmh 29.81 in1009.5 mb 0.00 in0.0 mm 0.00 in0.0 mm 0.00 in0.0 mm
08:15 AM 38.4°F3.6°C 37.9°F3.3°C 98% 5.0 mph S8.0 kmh S 7.0 mph11.3 kmh 29.81 in1009.5 mb 0.00 in0.0 mm 0.00 in0.0 mm 0.00 in0.0 mm
08:30 AM 38.0°F3.3°C 37.5°F3.1°C 98% 5.0 mph SSE8.0 kmh SSE 6.0 mph9.7 kmh 29.81 in1009.5 mb 0.00 in0.0 mm 0.00 in0.0 mm 0.00 in0.0 mm
08:47 AM 37.0°F2.8°C 36.5°F2.5°C 98% 4.0 mph SSE6.4 kmh SSE 5.0 mph8.0 kmh 29.81 in1009.5 mb 0.00 in0.0 mm 0.00 in0.0 mm 0.00 in0.0 mm
09:00 AM 37.3°F2.9°C 36.8°F2.7°C 98% 4.0 mph S6.4 kmh S 7.0 mph11.3 kmh 29.81 in1009.5 mb 0.00 in0.0 mm 0.00 in0.0 mm 0.00 in0.0 mm
09:15 AM 37.5°F3.1°C 37.0°F2.8°C 98% 6.0 mph S9.7 kmh S 9.0 mph14.5 kmh 29.82 in1009.8 mb 0.00 in0.0 mm 0.00 in0.0 mm 0.00 in0.0 mm
09:30 AM 37.3°F2.9°C 36.8°F2.7°C 98% 4.0 mph S6.4 kmh S 8.0 mph12.9 kmh 29.81 in1009.5 mb 0.00 in0.0 mm 0.00 in0.0 mm 0.00 in0.0 mm
09:45 AM 37.5°F3.1°C 37.0°F2.8°C 98% 4.0 mph SSE6.4 kmh SSE 7.0 mph11.3 kmh 29.81 in1009.5 mb 0.00 in0.0 mm 0.00 in0.0 mm 0.00 in0.0 mm
10:00 AM 37.5°F3.1°C 37.0°F2.8°C 98% 5.0 mph SSE8.0 kmh SSE 6.0 mph9.7 kmh 29.82 in1009.8 mb 0.00 in0.0 mm 0.00 in0.0 mm 0.00 in0.0 mm
10:15 AM 38.2°F3.4°C 37.7°F3.2°C 98% 5.0 mph S8.0 kmh S 9.0 mph14.5 kmh 29.82 in1009.8 mb 0.00 in0.0 mm 0.00 in0.0 mm 0.00 in0.0 mm
10:30 AM 37.1°F2.8°C 36.6°F2.6°C 98% 3.0 mph S4.8 kmh S 6.0 mph9.7 kmh 29.82 in1009.8 mb 0.01 in0.3 mm 0.04 in1.0 mm 0.01 in0.3 mm
10:45 AM 37.4°F3.0°C 36.9°F2.7°C 98% 5.0 mph S8.0 kmh S 7.0 mph11.3 kmh 29.82 in1009.8 mb 0.01 in0.3 mm 0.00 in0.0 mm 0.01 in0.3 mm
11:00 AM 37.8°F3.2°C 37.3°F2.9°C 98% 4.0 mph S6.4 kmh S 6.0 mph9.7 kmh 29.83 in1010.2 mb 0.01 in0.3 mm 0.00 in0.0 mm 0.01 in0.3 mm
11:15 AM 37.9°F3.3°C 37.4°F3.0°C 98% 4.0 mph S6.4 kmh S 7.0 mph11.3 kmh 29.83 in1010.2 mb 0.01 in0.3 mm 0.00 in0.0 mm 0.01 in0.3 mm
11:30 AM 38.5°F3.6°C 38.0°F3.3°C 98% 7.0 mph S11.3 kmh S 8.0 mph12.9 kmh 29.83 in1010.2 mb 0.00 in0.0 mm 0.00 in0.0 mm 0.01 in0.3 mm
11:45 AM 40.5°F4.7°C 40.0°F4.4°C 98% 11.0 mph S17.7 kmh S 12.0 mph19.3 kmh 29.83 in1010.2 mb 0.01 in0.3 mm 0.04 in1.0 mm 0.02 in0.5 mm
12:00 PM 41.1°F5.1°C 40.6°F4.8°C 98% 7.0 mph S11.3 kmh S 10.0 mph16.1 kmh 29.83 in1010.2 mb 0.01 in0.3 mm 0.00 in0.0 mm 0.02 in0.5 mm
12:15 PM 39.7°F4.3°C 39.2°F4.0°C 98% 4.0 mph S6.4 kmh S 7.0 mph11.3 kmh 29.82 in1009.8 mb 0.01 in0.3 mm 0.00 in0.0 mm 0.02 in0.5 mm
12:30 PM 38.1°F3.4°C 37.6°F3.1°C 98% 5.0 mph S8.0 kmh S 6.0 mph9.7 kmh 29.82 in1009.8 mb 0.01 in0.3 mm 0.00 in0.0 mm 0.02 in0.5 mm
12:45 PM 38.0°F3.3°C 37.5°F3.1°C 98% 4.0 mph SSE6.4 kmh SSE 5.0 mph8.0 kmh 29.81 in1009.5 mb 0.01 in0.3 mm 0.00 in0.0 mm 0.02 in0.5 mm
01:00 PM 37.9°F3.3°C 37.4°F3.0°C 98% 4.0 mph SSE6.4 kmh SSE 5.0 mph8.0 kmh 29.80 in1009.1 mb 0.00 in0.0 mm 0.00 in0.0 mm 0.02 in0.5 mm
01:15 PM 38.3°F3.5°C 37.8°F3.2°C 98% 4.0 mph S6.4 kmh S 7.0 mph11.3 kmh 29.79 in1008.8 mb 0.00 in0.0 mm 0.00 in0.0 mm 0.02 in0.5 mm
01:30 PM 37.7°F3.2°C 37.2°F2.9°C 98% 7.0 mph SSE11.3 kmh SSE 8.0 mph12.9 kmh 29.78 in1008.5 mb 0.00 in0.0 mm 0.00 in0.0 mm 0.02 in0.5 mm
01:45 PM 38.0°F3.3°C 37.5°F3.1°C 98% 6.0 mph S9.7 kmh S 9.0 mph14.5 kmh 29.77 in1008.1 mb 0.00 in0.0 mm 0.00 in0.0 mm 0.02 in0.5 mm
02:00 PM 38.1°F3.4°C 37.6°F3.1°C 98% 8.0 mph S12.9 kmh S 8.0 mph12.9 kmh 29.76 in1007.8 mb 0.00 in0.0 mm 0.00 in0.0 mm 0.02 in0.5 mm
02:15 PM 38.0°F3.3°C 37.5°F3.1°C 98% 7.0 mph S11.3 kmh S 10.0 mph16.1 kmh 29.76 in1007.8 mb 0.00 in0.0 mm 0.00 in0.0 mm 0.02 in0.5 mm
02:30 PM 38.0°F3.3°C 37.5°F3.1°C 98% 8.0 mph S12.9 kmh S 8.0 mph12.9 kmh 29.75 in1007.5 mb 0.00 in0.0 mm 0.00 in0.0 mm 0.02 in0.5 mm
02:45 PM 38.4°F3.6°C 37.9°F3.3°C 98% 8.0 mph S12.9 kmh S 10.0 mph16.1 kmh 29.74 in1007.1 mb 0.00 in0.0 mm 0.00 in0.0 mm 0.02 in0.5 mm
03:00 PM 39.2°F4.0°C 38.7°F3.7°C 98% 9.0 mph S14.5 kmh S 12.0 mph19.3 kmh 29.73 in1006.8 mb 0.00 in0.0 mm 0.00 in0.0 mm 0.02 in0.5 mm
03:15 PM 39.6°F4.2°C 39.1°F3.9°C 98% 11.0 mph S17.7 kmh S 13.0 mph20.9 kmh 29.73 in1006.8 mb 0.00 in0.0 mm 0.00 in0.0 mm 0.02 in0.5 mm
03:30 PM 39.2°F4.0°C 38.7°F3.7°C 98% 8.0 mph S12.9 kmh S 11.0 mph17.7 kmh 29.73 in1006.8 mb 0.00 in0.0 mm 0.00 in0.0 mm 0.02 in0.5 mm
03:45 PM 39.5°F4.2°C 39.0°F3.9°C 98% 12.0 mph S19.3 kmh S 13.0 mph20.9 kmh 29.73 in1006.8 mb 0.00 in0.0 mm 0.00 in0.0 mm 0.02 in0.5 mm
04:00 PM 40.5°F4.7°C 40.0°F4.4°C 98% 13.0 mph S20.9 kmh S 17.0 mph27.4 kmh 29.72 in1006.4 mb 0.00 in0.0 mm 0.00 in0.0 mm 0.02 in0.5 mm
04:15 PM 40.4°F4.7°C 39.9°F4.4°C 98% 15.0 mph S24.1 kmh S 17.0 mph27.4 kmh 29.72 in1006.4 mb 0.00 in0.0 mm 0.00 in0.0 mm 0.02 in0.5 mm
04:30 PM 40.0°F4.4°C 39.5°F4.2°C 98% 12.0 mph S19.3 kmh S 16.0 mph25.7 kmh 29.72 in1006.4 mb 0.00 in0.0 mm 0.00 in0.0 mm 0.02 in0.5 mm
04:45 PM 40.2°F4.6°C 39.7°F4.3°C 98% 11.0 mph S17.7 kmh S 18.0 mph29.0 kmh 29.71 in1006.1 mb 0.00 in0.0 mm 0.00 in0.0 mm 0.02 in0.5 mm
05:00 PM 40.2°F4.6°C 39.7°F4.3°C 98% 13.0 mph S20.9 kmh S 16.0 mph25.7 kmh 29.70 in1005.8 mb 0.00 in0.0 mm 0.00 in0.0 mm 0.02 in0.5 mm
05:15 PM 39.9°F4.4°C 39.4°F4.1°C 98% 15.0 mph S24.1 kmh S 16.0 mph25.7 kmh 29.70 in1005.8 mb 0.00 in0.0 mm 0.00 in0.0 mm 0.02 in0.5 mm
05:30 PM 40.4°F4.7°C 39.9°F4.4°C 98% 12.0 mph S19.3 kmh S 19.0 mph30.6 kmh 29.69 in1005.4 mb 0.00 in0.0 mm 0.00 in0.0 mm 0.02 in0.5 mm
05:45 PM 40.1°F4.5°C 39.6°F4.2°C 98% 13.0 mph S20.9 kmh S 17.0 mph27.4 kmh 29.69 in1005.4 mb 0.00 in0.0 mm 0.00 in0.0 mm 0.02 in0.5 mm
06:00 PM 40.0°F4.4°C 39.5°F4.2°C 98% 15.0 mph S24.1 kmh S 16.0 mph25.7 kmh 29.69 in1005.4 mb 0.00 in0.0 mm 0.00 in0.0 mm 0.02 in0.5 mm
06:15 PM 42.1°F5.6°C 41.6°F5.3°C 98% 17.0 mph S27.4 kmh S 21.0 mph33.8 kmh 29.68 in1005.1 mb 0.00 in0.0 mm 0.00 in0.0 mm 0.02 in0.5 mm
06:30 PM 40.7°F4.8°C 40.2°F4.6°C 98% 12.0 mph S19.3 kmh S 17.0 mph27.4 kmh 29.68 in1005.1 mb 0.00 in0.0 mm 0.00 in0.0 mm 0.02 in0.5 mm
06:45 PM 40.9°F4.9°C 40.4°F4.7°C 98% 13.0 mph SSW20.9 kmh SSW 16.0 mph25.7 kmh 29.68 in1005.1 mb 0.00 in0.0 mm 0.00 in0.0 mm 0.02 in0.5 mm
07:00 PM 42.3°F5.7°C 41.8°F5.4°C 98% 15.0 mph S24.1 kmh S 18.0 mph29.0 kmh 29.68 in1005.1 mb 0.00 in0.0 mm 0.00 in0.0 mm 0.02 in0.5 mm
07:15 PM 42.2°F5.7°C 41.7°F5.4°C 98% 15.0 mph S24.1 kmh S 20.0 mph32.2 kmh 29.67 in1004.7 mb 0.00 in0.0 mm 0.00 in0.0 mm 0.02 in0.5 mm
07:30 PM 41.3°F5.2°C 40.8°F4.9°C 98% 15.0 mph SSW24.1 kmh SSW 18.0 mph29.0 kmh 29.67 in1004.7 mb 0.00 in0.0 mm 0.00 in0.0 mm 0.02 in0.5 mm
07:45 PM 41.6°F5.3°C 41.1°F5.1°C 98% 12.0 mph SSW19.3 kmh SSW 17.0 mph27.4 kmh 29.67 in1004.7 mb 0.00 in0.0 mm 0.00 in0.0 mm 0.02 in0.5 mm
08:00 PM 40.4°F4.7°C 39.9°F4.4°C 98% 10.0 mph SSW16.1 kmh SSW 15.0 mph24.1 kmh 29.67 in1004.7 mb 0.00 in0.0 mm 0.00 in0.0 mm 0.02 in0.5 mm
08:15 PM 37.9°F3.3°C 37.4°F3.0°C 98% 7.0 mph SSW11.3 kmh SSW 9.0 mph14.5 kmh 29.66 in1004.4 mb 0.00 in0.0 mm 0.00 in0.0 mm 0.02 in0.5 mm
08:30 PM 38.0°F3.3°C 37.5°F3.1°C 98% 7.0 mph SW11.3 kmh SW 9.0 mph14.5 kmh 29.66 in1004.4 mb 0.00 in0.0 mm 0.00 in0.0 mm 0.02 in0.5 mm
08:45 PM 40.0°F4.4°C 39.5°F4.2°C 98% 14.0 mph S22.5 kmh S 18.0 mph29.0 kmh 29.66 in1004.4 mb 0.00 in0.0 mm 0.00 in0.0 mm 0.02 in0.5 mm
09:00 PM 39.5°F4.2°C 39.0°F3.9°C 98% 11.0 mph S17.7 kmh S 16.0 mph25.7 kmh 29.67 in1004.7 mb 0.01 in0.3 mm 0.01 in0.3 mm 0.03 in0.8 mm
09:15 PM 38.9°F3.8°C 38.4°F3.6°C 98% 10.0 mph S16.1 kmh S 13.0 mph20.9 kmh 29.66 in1004.4 mb 0.01 in0.3 mm 0.00 in0.0 mm 0.03 in0.8 mm
09:30 PM 38.5°F3.6°C 38.0°F3.3°C 98% 7.0 mph S11.3 kmh S 9.0 mph14.5 kmh 29.65 in1004.1 mb 0.01 in0.3 mm 0.00 in0.0 mm 0.03 in0.8 mm
09:45 PM 39.8°F4.3°C 39.3°F4.1°C 98% 12.0 mph S19.3 kmh S 14.0 mph22.5 kmh 29.65 in1004.1 mb 0.01 in0.3 mm 0.00 in0.0 mm 0.03 in0.8 mm
10:00 PM 40.5°F4.7°C 40.0°F4.4°C 98% 9.0 mph S14.5 kmh S 12.0 mph19.3 kmh 29.65 in1004.1 mb 0.00 in0.0 mm 0.00 in0.0 mm 0.03 in0.8 mm
10:15 PM 39.0°F3.9°C 38.5°F3.6°C 98% 8.0 mph S12.9 kmh S 11.0 mph17.7 kmh 29.64 in1003.7 mb 0.00 in0.0 mm 0.00 in0.0 mm 0.03 in0.8 mm
10:30 PM 38.8°F3.8°C 38.3°F3.5°C 98% 7.0 mph S11.3 kmh S 11.0 mph17.7 kmh 29.64 in1003.7 mb 0.00 in0.0 mm 0.00 in0.0 mm 0.03 in0.8 mm
10:45 PM 39.8°F4.3°C 39.3°F4.1°C 98% 6.0 mph S9.7 kmh S 9.0 mph14.5 kmh 29.64 in1003.7 mb 0.00 in0.0 mm 0.00 in0.0 mm 0.03 in0.8 mm
11:00 PM 40.8°F4.9°C 40.3°F4.6°C 98% 6.0 mph S9.7 kmh S 9.0 mph14.5 kmh 29.64 in1003.7 mb 0.00 in0.0 mm 0.00 in0.0 mm 0.03 in0.8 mm
11:15 PM 40.0°F4.4°C 39.5°F4.2°C 98% 6.0 mph SSW9.7 kmh SSW 9.0 mph14.5 kmh 29.65 in1004.1 mb 0.00 in0.0 mm 0.00 in0.0 mm 0.03 in0.8 mm
11:30 PM 45.1°F7.3°C 44.6°F7.0°C 98% 3.0 mph NW4.8 kmh NW 9.0 mph14.5 kmh 29.65 in1004.1 mb 0.06 in1.5 mm 0.24 in6.1 mm 0.09 in2.3 mm
11:45 PM 50.3°F10.2°C 50.0°F10.0°C 99% 4.0 mph WNW6.4 kmh WNW 5.0 mph8.0 kmh 29.65 in1004.1 mb 0.06 in1.5 mm 0.00 in0.0 mm 0.09 in2.3 mm